createdAt,value
2023-04-09T00:00:52.510Z,67.9019
2023-04-09T00:01:52.894Z,67.9227
2023-04-09T00:02:53.282Z,67.9348
2023-04-09T00:03:54.024Z,67.9450
2023-04-09T00:04:54.445Z,67.9773
2023-04-09T00:05:54.774Z,68.0244
2023-04-09T00:06:55.142Z,68.0589
2023-04-09T00:07:55.483Z,68.0857
2023-04-09T00:08:55.787Z,68.1040
2023-04-09T00:09:56.120Z,68.1426
2023-04-09T00:10:56.471Z,68.1855
2023-04-09T00:11:56.866Z,68.2196
2023-04-09T00:12:57.309Z,68.2557
2023-04-09T00:13:57.677Z,68.2844
2023-04-09T00:14:58.042Z,68.3123
2023-04-09T00:15:58.403Z,68.3394
2023-04-09T00:16:58.730Z,68.3768
2023-04-09T00:17:59.215Z,68.4338
2023-04-09T00:18:59.913Z,68.4999
2023-04-09T00:20:00.278Z,68.5800
2023-04-09T00:21:00.621Z,68.6618
2023-04-09T00:22:00.989Z,68.7211
2023-04-09T00:23:01.356Z,68.7621
2023-04-09T00:24:01.752Z,68.7828
2023-04-09T00:25:02.207Z,68.8170
2023-04-09T00:26:02.593Z,68.8604
2023-04-09T00:27:03.023Z,68.9099
2023-04-09T00:28:03.386Z,68.9610
2023-04-09T00:29:03.741Z,69.0144
2023-04-09T00:30:04.145Z,69.0605
2023-04-09T00:31:04.541Z,69.1343
2023-04-09T00:32:04.980Z,69.2248
2023-04-09T00:33:05.493Z,69.3376
2023-04-09T00:34:05.803Z,69.4203
2023-04-09T00:35:06.177Z,69.4805
2023-04-09T00:36:06.543Z,69.5263
2023-04-09T00:37:06.933Z,69.5599
2023-04-09T00:38:07.373Z,69.5945
2023-04-09T00:39:07.737Z,69.6430
2023-04-09T00:40:08.085Z,69.7011
2023-04-09T00:41:08.476Z,69.7604
2023-04-09T00:42:08.876Z,69.8075
2023-04-09T00:43:09.261Z,69.8533
2023-04-09T00:44:09.612Z,69.9070
2023-04-09T00:45:09.982Z,69.9565
2023-04-09T00:46:10.462Z,69.9919
2023-04-09T00:47:10.868Z,70.0084
2023-04-09T00:48:11.277Z,70.0428
2023-04-09T00:49:11.629Z,70.0749
2023-04-09T00:50:12.021Z,70.1015
2023-04-09T00:51:12.438Z,70.1260
2023-04-09T00:52:12.802Z,70.1561
2023-04-09T00:53:13.247Z,70.2191
2023-04-09T00:54:13.582Z,70.2838
2023-04-09T00:55:14.018Z,70.3188
2023-04-09T00:56:14.402Z,70.3555
2023-04-09T00:57:14.804Z,70.3813
2023-04-09T00:58:15.177Z,70.4048
2023-04-09T00:59:15.572Z,70.4125
2023-04-09T01:00:15.929Z,70.4304
2023-04-09T01:01:16.358Z,70.4509
2023-04-09T01:02:16.855Z,70.4830
2023-04-09T01:03:17.344Z,70.5133
2023-04-09T01:04:17.904Z,70.5458
2023-04-09T01:05:18.285Z,70.5811
2023-04-09T01:06:18.685Z,70.6241
2023-04-09T01:07:19.073Z,70.6794
2023-04-09T01:08:19.440Z,70.7295
2023-04-09T01:09:19.815Z,70.7835
2023-04-09T01:10:20.169Z,70.8706
2023-04-09T01:11:20.535Z,70.9670
2023-04-09T01:12:20.970Z,71.0481
2023-04-09T01:13:21.364Z,71.1007
2023-04-09T01:14:21.848Z,71.1643
2023-04-09T01:15:22.275Z,71.2546
2023-04-09T01:16:22.676Z,71.3527
2023-04-09T01:17:23.069Z,71.4345
2023-04-09T01:18:23.508Z,71.5069
2023-04-09T01:19:23.905Z,71.6202
2023-04-09T01:20:24.303Z,71.7144
2023-04-09T01:21:24.686Z,71.7742
2023-04-09T01:22:25.127Z,71.8131
2023-04-09T01:23:25.511Z,71.8375
2023-04-09T01:24:25.915Z,71.8950
2023-04-09T01:25:26.403Z,71.9779
2023-04-09T01:26:26.778Z,72.0574
2023-04-09T01:27:27.170Z,72.1183
2023-04-09T01:28:27.630Z,72.1664
2023-04-09T01:29:28.057Z,72.2030
2023-04-09T01:30:28.478Z,72.2308
2023-04-09T01:31:28.902Z,72.2643
2023-04-09T01:32:29.445Z,72.3011
2023-04-09T01:33:29.844Z,72.3244
2023-04-09T01:34:30.221Z,72.3367
2023-04-09T01:35:30.659Z,72.3503
2023-04-09T01:36:31.083Z,72.3585
2023-04-09T01:37:31.546Z,72.3650
2023-04-09T01:38:32.034Z,72.3646
2023-04-09T01:39:32.400Z,72.3744
2023-04-09T01:40:32.785Z,72.3917
2023-04-09T01:41:33.157Z,72.4224
2023-04-09T01:42:33.557Z,72.4492
2023-04-09T01:43:34.024Z,72.4767
2023-04-09T01:44:34.403Z,72.5258
2023-04-09T01:45:34.808Z,72.5729
2023-04-09T01:46:35.226Z,72.5972
2023-04-09T01:47:36.206Z,72.6333
2023-04-09T01:48:36.614Z,72.6658
2023-04-09T01:49:37.012Z,72.7027
2023-04-09T01:50:37.394Z,72.7366
2023-04-09T01:51:37.771Z,72.7599
2023-04-09T01:52:38.180Z,72.7787
2023-04-09T01:53:38.529Z,72.8104
2023-04-09T01:54:38.885Z,72.8289
2023-04-09T01:55:39.271Z,72.8481
2023-04-09T01:56:39.659Z,72.8395
2023-04-09T01:57:40.090Z,72.8322
2023-04-09T01:58:40.528Z,72.8206
2023-04-09T01:59:40.901Z,72.8164
2023-04-09T02:00:41.297Z,72.8240
2023-04-09T02:01:41.767Z,72.8325
2023-04-09T02:02:42.478Z,72.8559
2023-04-09T02:03:43.147Z,72.8851
2023-04-09T02:04:43.695Z,72.9240
2023-04-09T02:05:44.063Z,72.9568
2023-04-09T02:06:44.458Z,72.9733
2023-04-09T02:07:44.905Z,72.9801
2023-04-09T02:08:45.393Z,72.9826
2023-04-09T02:09:45.792Z,73.0118
2023-04-09T02:10:46.164Z,73.0720
2023-04-09T02:11:46.609Z,73.1551
2023-04-09T02:12:47.042Z,73.2083
2023-04-09T02:13:47.441Z,73.2537
2023-04-09T02:14:47.806Z,73.3011
2023-04-09T02:15:48.232Z,73.3335
2023-04-09T02:16:48.737Z,73.3632
2023-04-09T02:17:49.314Z,73.4008
2023-04-09T02:18:50.125Z,73.4446
2023-04-09T02:19:51.548Z,73.4688
2023-04-09T02:20:51.927Z,73.5111
2023-04-09T02:21:52.390Z,73.5617
2023-04-09T02:22:52.730Z,73.6079
2023-04-09T02:23:53.134Z,73.6399
2023-04-09T02:24:53.511Z,73.6634
2023-04-09T02:25:53.875Z,73.7095
2023-04-09T02:26:54.368Z,73.7415
2023-04-09T02:27:54.752Z,73.7561
2023-04-09T02:28:55.154Z,73.7737
2023-04-09T02:29:55.496Z,73.7896
2023-04-09T02:30:55.925Z,73.8051
2023-04-09T02:31:56.383Z,73.8206
2023-04-09T02:32:56.789Z,73.8242
2023-04-09T02:33:57.230Z,73.8370
2023-04-09T02:34:57.665Z,73.8527
2023-04-09T02:35:58.159Z,73.8647
2023-04-09T02:36:58.573Z,73.8728
2023-04-09T02:37:58.976Z,73.8864
2023-04-09T02:38:59.374Z,73.8996
2023-04-09T02:39:59.752Z,73.9039
2023-04-09T02:41:00.148Z,73.9274
2023-04-09T02:42:00.574Z,73.9476
2023-04-09T02:43:00.968Z,73.9872
2023-04-09T02:44:01.397Z,74.0289
2023-04-09T02:45:01.789Z,74.0970
2023-04-09T02:46:02.243Z,74.1756
2023-04-09T02:47:02.784Z,74.2482
2023-04-09T02:48:03.221Z,74.3082
2023-04-09T02:49:03.633Z,74.3578
2023-04-09T02:50:04.077Z,74.3805
2023-04-09T02:51:04.458Z,74.3972
2023-04-09T02:52:05.125Z,74.4081
2023-04-09T02:53:05.518Z,74.4246
2023-04-09T02:54:05.939Z,74.4377
2023-04-09T02:55:06.333Z,74.4683
2023-04-09T02:56:06.730Z,74.4949
2023-04-09T02:57:07.134Z,74.5292
2023-04-09T02:58:07.540Z,74.5582
2023-04-09T02:59:07.953Z,74.5886
2023-04-09T03:00:08.388Z,74.6028
2023-04-09T03:01:08.839Z,74.6210
2023-04-09T03:02:09.349Z,74.6300
2023-04-09T03:03:09.968Z,74.6392
2023-04-09T03:04:11.420Z,74.6413
2023-04-09T03:05:11.949Z,74.6458
2023-04-09T03:06:12.315Z,74.6469
2023-04-09T03:07:12.681Z,74.6364
2023-04-09T03:08:13.119Z,74.6207
2023-04-09T03:09:13.606Z,74.6134
2023-04-09T03:10:14.122Z,74.6055
2023-04-09T03:11:14.518Z,74.6103
2023-04-09T03:12:14.940Z,74.6032
2023-04-09T03:13:15.378Z,74.6087
2023-04-09T03:14:15.790Z,74.6163
2023-04-09T03:15:16.182Z,74.6108
2023-04-09T03:16:17.486Z,74.5945
2023-04-09T03:17:17.897Z,74.5617
2023-04-09T03:18:18.361Z,74.5333
2023-04-09T03:19:18.765Z,74.5049
2023-04-09T03:20:19.220Z,74.4835
2023-04-09T03:21:19.599Z,74.4707
2023-04-09T03:22:20.046Z,74.4533
2023-04-09T03:23:20.522Z,74.4531
2023-04-09T03:24:20.990Z,74.4712
2023-04-09T03:25:21.340Z,74.4784
2023-04-09T03:26:21.710Z,74.4816
2023-04-09T03:27:22.127Z,74.4811
2023-04-09T03:28:22.616Z,74.4801
2023-04-09T03:29:23.057Z,74.4749
2023-04-09T03:30:23.451Z,74.4661
2023-04-09T03:31:23.936Z,74.4730
2023-04-09T03:32:24.434Z,74.4885
2023-04-09T03:33:24.921Z,74.5056
2023-04-09T03:34:25.341Z,74.5173
2023-04-09T03:35:25.737Z,74.5357
2023-04-09T03:36:26.137Z,74.5472
2023-04-09T03:37:26.597Z,74.5622
2023-04-09T03:38:26.982Z,74.5809
2023-04-09T03:39:27.414Z,74.5918
2023-04-09T03:40:27.886Z,74.5907
2023-04-09T03:41:28.282Z,74.5854
2023-04-09T03:42:28.711Z,74.5949
2023-04-09T03:43:29.113Z,74.6038
2023-04-09T03:44:29.594Z,74.6085
2023-04-09T03:45:30.007Z,74.6214
2023-04-09T03:46:30.615Z,74.6351
2023-04-09T03:47:31.165Z,74.6659
2023-04-09T03:48:31.632Z,74.6991
2023-04-09T03:49:32.032Z,74.7313
2023-04-09T03:50:32.453Z,74.7601
2023-04-09T03:51:32.858Z,74.7943
2023-04-09T03:52:33.275Z,74.8230
2023-04-09T03:53:33.728Z,74.8520
2023-04-09T03:54:34.167Z,74.8615
2023-04-09T03:55:34.615Z,74.8678
2023-04-09T03:56:35.002Z,74.8693
2023-04-09T03:57:35.405Z,74.8700
2023-04-09T03:58:35.898Z,74.8688
2023-04-09T03:59:36.269Z,74.8618
2023-04-09T04:00:36.662Z,74.8494
2023-04-09T04:01:37.062Z,74.8282
2023-04-09T04:02:37.781Z,74.8113
2023-04-09T04:03:38.675Z,74.8265
2023-04-09T04:04:39.531Z,74.8752
2023-04-09T04:05:39.903Z,74.9322
2023-04-09T04:06:40.339Z,74.9992
2023-04-09T04:07:40.719Z,75.0593
2023-04-09T04:08:41.201Z,75.1126
2023-04-09T04:09:41.581Z,75.1544
2023-04-09T04:10:42.069Z,75.1812
2023-04-09T04:11:42.492Z,75.2057
2023-04-09T04:12:42.900Z,75.2274
2023-04-09T04:13:43.370Z,75.2461
2023-04-09T04:14:43.758Z,75.2501
2023-04-09T04:15:44.142Z,75.2460
2023-04-09T04:16:44.566Z,75.2281
2023-04-09T04:17:45.137Z,75.1970
2023-04-09T04:18:45.638Z,75.1657
2023-04-09T04:19:46.086Z,75.1316
2023-04-09T04:20:46.492Z,75.0996
2023-04-09T04:21:47.042Z,75.0806
2023-04-09T04:22:47.442Z,75.0637
2023-04-09T04:23:47.921Z,75.0568
2023-04-09T04:24:48.394Z,75.0502
2023-04-09T04:25:48.892Z,75.0461
2023-04-09T04:26:49.300Z,75.0404
2023-04-09T04:27:49.748Z,75.0505
2023-04-09T04:28:50.379Z,75.0735
2023-04-09T04:29:51.587Z,75.1075
2023-04-09T04:30:52.016Z,75.1363
2023-04-09T04:31:52.536Z,75.1636
2023-04-09T04:32:53.115Z,75.1973
2023-04-09T04:33:53.587Z,75.2423
2023-04-09T04:34:54.087Z,75.3032
2023-04-09T04:35:54.544Z,75.3656
2023-04-09T04:36:55.026Z,75.4269
2023-04-09T04:37:55.499Z,75.4769
2023-04-09T04:38:55.950Z,75.5173
2023-04-09T04:39:56.349Z,75.5542
2023-04-09T04:40:56.887Z,75.5803
2023-04-09T04:41:57.380Z,75.6128
2023-04-09T04:42:57.752Z,75.6395
2023-04-09T04:43:58.243Z,75.6626
2023-04-09T04:44:58.698Z,75.6829
2023-04-09T04:45:59.203Z,75.7100
2023-04-09T04:46:59.737Z,75.7447
2023-04-09T04:48:00.267Z,75.7440
2023-04-09T04:49:00.779Z,75.7303
2023-04-09T04:50:01.234Z,75.7295
2023-04-09T04:51:01.730Z,75.7183
2023-04-09T04:52:02.197Z,75.7120
2023-04-09T04:53:02.623Z,75.7103
2023-04-09T04:54:03.211Z,75.7151
2023-04-09T04:55:03.730Z,75.7309
2023-04-09T04:56:04.118Z,75.7430
2023-04-09T04:57:04.605Z,75.7512
2023-04-09T04:58:05.042Z,75.7583
2023-04-09T04:59:05.507Z,75.7576
2023-04-09T05:00:05.986Z,75.7555
2023-04-09T05:01:06.449Z,75.7505
2023-04-09T05:02:06.935Z,75.7489
2023-04-09T05:03:07.502Z,75.7493
2023-04-09T05:04:08.040Z,75.7422
2023-04-09T05:05:08.534Z,75.7294
2023-04-09T05:06:08.943Z,75.7042
2023-04-09T05:07:09.458Z,75.6749
2023-04-09T05:08:09.898Z,75.6443
2023-04-09T05:09:10.351Z,75.6269
2023-04-09T05:10:10.832Z,75.6173
2023-04-09T05:11:11.327Z,75.6098
2023-04-09T05:12:11.777Z,75.6067
2023-04-09T05:13:12.230Z,75.6055
2023-04-09T05:14:12.775Z,75.5978
2023-04-09T05:15:13.211Z,75.5865
2023-04-09T05:16:13.680Z,75.5631
2023-04-09T05:17:14.086Z,75.5378
2023-04-09T05:18:14.509Z,75.5117
2023-04-09T05:19:14.985Z,75.4795
2023-04-09T05:20:15.407Z,75.4549
2023-04-09T05:21:15.840Z,75.4504
2023-04-09T05:22:16.250Z,75.4608
2023-04-09T05:23:16.759Z,75.4591
2023-04-09T05:24:17.255Z,75.4514
2023-04-09T05:25:17.687Z,75.4474
2023-04-09T05:26:18.113Z,75.4431
2023-04-09T05:27:18.578Z,75.4435
2023-04-09T05:28:19.024Z,75.4514
2023-04-09T05:29:19.553Z,75.4591
2023-04-09T05:30:20.032Z,75.4736
2023-04-09T05:31:20.507Z,75.4979
2023-04-09T05:32:20.995Z,75.5354
2023-04-09T05:33:21.576Z,75.5691
2023-04-09T05:34:22.075Z,75.5981
2023-04-09T05:35:22.545Z,75.6174
2023-04-09T05:36:23.031Z,75.6322
2023-04-09T05:37:23.491Z,75.6384
2023-04-09T05:38:23.906Z,75.6487
2023-04-09T05:39:24.436Z,75.6649
2023-04-09T05:40:24.961Z,75.7061
2023-04-09T05:41:25.383Z,75.7541
2023-04-09T05:42:25.825Z,75.7983
2023-04-09T05:43:26.231Z,75.8286
2023-04-09T05:44:26.740Z,75.8499
2023-04-09T05:45:27.219Z,75.8623
2023-04-09T05:46:27.788Z,75.8739
2023-04-09T05:47:28.253Z,75.8888
2023-04-09T05:48:28.677Z,75.9014
2023-04-09T05:49:29.098Z,75.9127
2023-04-09T05:50:29.572Z,75.9255
2023-04-09T05:51:30.038Z,75.9492
2023-04-09T05:52:30.499Z,75.9804
2023-04-09T05:53:30.957Z,76.0242
2023-04-09T05:54:31.504Z,76.0544
2023-04-09T05:55:31.915Z,76.0885
2023-04-09T05:56:32.461Z,76.1075
2023-04-09T05:57:32.902Z,76.1292
2023-04-09T05:58:33.302Z,76.1328
2023-04-09T05:59:33.817Z,76.1392
2023-04-09T06:00:34.262Z,76.1452
2023-04-09T06:01:34.726Z,76.1542
2023-04-09T06:02:35.196Z,76.1710
2023-04-09T06:03:35.746Z,76.1916
2023-04-09T06:04:36.493Z,76.2190
2023-04-09T06:05:36.962Z,76.2402
2023-04-09T06:06:37.392Z,76.2516
2023-04-09T06:07:37.893Z,76.2685
2023-04-09T06:08:38.292Z,76.2750
2023-04-09T06:09:38.726Z,76.2890
2023-04-09T06:10:41.317Z,76.3007
2023-04-09T06:11:39.577Z,76.3227
2023-04-09T06:12:40.125Z,76.3361
2023-04-09T06:13:41.593Z,76.3465
2023-04-09T06:14:42.157Z,76.3619
2023-04-09T06:15:42.591Z,76.3748
2023-04-09T06:16:43.068Z,76.3979
2023-04-09T06:17:43.613Z,76.4221
2023-04-09T06:18:44.047Z,76.4478
2023-04-09T06:19:44.542Z,76.4753
2023-04-09T06:20:44.968Z,76.5057
2023-04-09T06:21:45.400Z,76.5318
2023-04-09T06:22:45.906Z,76.5642
2023-04-09T06:23:46.634Z,76.6120
2023-04-09T06:24:47.105Z,76.6696
2023-04-09T06:25:47.605Z,76.7393
2023-04-09T06:26:48.078Z,76.7834
2023-04-09T06:27:48.549Z,76.8724
2023-04-09T06:28:48.960Z,76.9167
2023-04-09T06:29:49.486Z,76.9860
2023-04-09T06:30:49.986Z,77.0452
2023-04-09T06:31:50.414Z,77.0978
2023-04-09T06:32:54.472Z,77.1298
2023-04-09T06:33:51.820Z,77.1713
2023-04-09T06:34:53.330Z,77.2190
2023-04-09T06:35:53.794Z,77.2348
2023-04-09T06:36:54.299Z,77.2724
2023-04-09T06:37:54.819Z,77.2924
2023-04-09T06:38:55.369Z,77.2971
2023-04-09T06:40:00.862Z,77.3224
2023-04-09T06:40:57.571Z,77.3460
2023-04-09T06:41:57.965Z,77.3713
2023-04-09T06:42:58.417Z,77.3851
2023-04-09T06:43:58.815Z,77.4072
2023-04-09T06:44:59.286Z,77.4467
2023-04-09T06:45:59.723Z,77.4963
2023-04-09T06:47:00.103Z,77.5407
2023-04-09T06:48:00.714Z,77.5652
2023-04-09T06:49:01.158Z,77.5833
2023-04-09T06:50:01.644Z,77.5946
2023-04-09T06:51:02.251Z,77.5903
2023-04-09T06:52:02.717Z,77.5909
2023-04-09T06:53:03.235Z,77.5793
2023-04-09T06:54:03.780Z,77.5686
2023-04-09T06:55:04.260Z,77.5951
2023-04-09T06:56:04.690Z,77.6587
2023-04-09T06:57:05.168Z,77.7496
2023-04-09T06:58:05.616Z,77.7974
2023-04-09T06:59:06.014Z,77.8448
2023-04-09T07:00:06.524Z,77.8998
2023-04-09T07:01:06.988Z,77.9189
2023-04-09T07:02:07.516Z,77.9233
2023-04-09T07:03:08.228Z,77.9241
2023-04-09T07:04:08.966Z,77.9278
2023-04-09T07:05:09.488Z,77.9221
2023-04-09T07:06:09.937Z,77.8974
2023-04-09T07:07:10.372Z,77.8626
2023-04-09T07:08:10.934Z,77.8380
2023-04-09T07:09:11.302Z,77.8292
2023-04-09T07:10:11.753Z,77.8637
2023-04-09T07:11:12.098Z,77.8846
2023-04-09T07:12:12.561Z,77.8874
2023-04-09T07:13:12.997Z,77.9046
2023-04-09T07:14:13.389Z,77.9221
2023-04-09T07:15:13.799Z,77.9169
2023-04-09T07:16:15.193Z,77.9007
2023-04-09T07:17:15.639Z,77.8655
2023-04-09T07:18:16.029Z,77.8241
2023-04-09T07:19:16.475Z,77.7744
2023-04-09T07:20:16.938Z,77.7248
2023-04-09T07:21:17.308Z,77.6561
2023-04-09T07:22:17.647Z,77.5993
2023-04-09T07:23:18.040Z,77.5457
2023-04-09T07:24:18.556Z,77.4989
2023-04-09T07:25:18.956Z,77.4261
2023-04-09T07:26:19.384Z,77.3371
2023-04-09T07:27:19.788Z,77.2418
2023-04-09T07:28:21.163Z,77.1497
2023-04-09T07:29:21.551Z,77.0725
2023-04-09T07:30:21.911Z,77.0049
2023-04-09T07:31:22.330Z,76.9354
2023-04-09T07:32:22.761Z,76.8597
2023-04-09T07:33:23.189Z,76.7776
2023-04-09T07:34:23.548Z,76.7090
2023-04-09T07:35:23.921Z,76.6303
2023-04-09T07:36:24.445Z,76.5555
2023-04-09T07:37:24.959Z,76.4670
2023-04-09T07:38:25.294Z,76.3662
2023-04-09T07:39:25.757Z,76.2662
2023-04-09T07:40:26.374Z,76.1443
2023-04-09T07:41:26.792Z,76.0288
2023-04-09T07:42:27.387Z,75.9258
2023-04-09T07:43:28.075Z,75.8320
2023-04-09T07:44:28.451Z,75.7394
2023-04-09T07:45:29.073Z,75.6297
2023-04-09T07:46:29.531Z,75.4977
2023-04-09T07:47:30.050Z,75.3553
2023-04-09T07:48:30.410Z,75.1921
2023-04-09T07:49:31.922Z,74.9804
2023-04-09T07:50:32.272Z,74.7351
2023-04-09T07:51:32.749Z,74.4732
2023-04-09T07:52:33.160Z,74.2323
2023-04-09T07:53:33.588Z,74.0379
2023-04-09T07:54:33.910Z,73.9033
2023-04-09T07:55:34.330Z,73.8104
2023-04-09T07:56:34.709Z,73.7143
2023-04-09T07:57:35.142Z,73.5615
2023-04-09T07:58:35.598Z,73.4048
2023-04-09T07:59:36.102Z,73.2985
2023-04-09T08:00:36.720Z,73.1529
2023-04-09T08:01:37.201Z,72.9918
2023-04-09T08:02:37.818Z,72.8655
2023-04-09T08:03:38.960Z,72.6998
2023-04-09T08:04:39.991Z,72.5278
2023-04-09T08:05:40.500Z,72.3627
2023-04-09T08:06:41.039Z,72.2075
2023-04-09T08:07:41.430Z,72.1399
2023-04-09T08:08:41.879Z,72.1461
2023-04-09T08:09:42.252Z,72.1850
2023-04-09T08:10:42.735Z,72.1756
2023-04-09T08:11:43.184Z,72.0833
2023-04-09T08:12:43.591Z,71.9637
2023-04-09T08:13:44.065Z,71.8269
2023-04-09T08:14:44.472Z,71.7001
2023-04-09T08:15:44.932Z,71.6153
2023-04-09T08:16:45.358Z,71.5474
2023-04-09T08:17:45.898Z,71.4935
2023-04-09T08:18:46.327Z,71.4851
2023-04-09T08:19:46.843Z,71.5738
2023-04-09T08:20:47.232Z,71.7214
2023-04-09T08:21:47.633Z,71.8621
2023-04-09T08:22:48.018Z,71.9393
2023-04-09T08:23:48.381Z,71.9189
2023-04-09T08:24:48.739Z,71.8725
2023-04-09T08:25:49.132Z,71.7908
2023-04-09T08:26:49.527Z,71.7001
2023-04-09T08:27:49.871Z,71.6458
2023-04-09T08:28:50.321Z,71.5620
2023-04-09T08:29:51.133Z,71.4010
2023-04-09T08:30:51.561Z,71.0260
2023-04-09T08:31:51.997Z,70.5210
2023-04-09T08:32:52.363Z,70.1445
2023-04-09T08:33:52.740Z,69.6716
2023-04-09T08:34:53.139Z,69.2149
2023-04-09T08:35:53.578Z,68.9355
2023-04-09T08:36:54.060Z,68.7154
2023-04-09T08:37:54.430Z,68.3595
2023-04-09T08:38:54.963Z,68.0837
2023-04-09T08:39:56.653Z,68.0090
2023-04-09T08:40:57.112Z,67.9539
2023-04-09T08:41:57.528Z,67.9021
2023-04-09T08:42:57.974Z,67.8921
2023-04-09T08:43:59.481Z,67.8989
2023-04-09T08:45:00.513Z,67.8992
2023-04-09T08:46:00.998Z,67.8981
2023-04-09T08:47:01.423Z,67.8419
2023-04-09T08:48:01.974Z,67.5938
2023-04-09T08:49:02.365Z,67.3159
2023-04-09T08:50:02.786Z,67.2149
2023-04-09T08:51:03.199Z,67.1448
2023-04-09T08:52:03.597Z,67.0908
2023-04-09T08:53:04.253Z,67.0411
2023-04-09T08:54:05.182Z,67.0334
2023-04-09T08:55:06.126Z,66.9691
2023-04-09T08:56:06.531Z,66.8358
2023-04-09T08:57:06.964Z,66.7056
2023-04-09T08:58:07.448Z,66.6344
2023-04-09T08:59:07.889Z,66.6093
2023-04-09T09:00:08.318Z,66.4778
2023-04-09T09:01:08.789Z,66.2948
2023-04-09T09:02:09.234Z,66.1827
2023-04-09T09:03:10.052Z,66.0372
2023-04-09T09:04:11.154Z,65.8735
2023-04-09T09:05:11.588Z,65.8478
2023-04-09T09:06:12.014Z,65.9082
2023-04-09T09:07:12.482Z,65.9607
2023-04-09T09:08:12.889Z,65.9697
2023-04-09T09:09:13.417Z,65.9241
2023-04-09T09:10:13.845Z,65.8516
2023-04-09T09:11:14.333Z,65.8213
2023-04-09T09:12:14.794Z,65.7705
2023-04-09T09:13:15.227Z,65.6885
2023-04-09T09:14:15.681Z,65.6500
2023-04-09T09:15:16.297Z,65.6359
2023-04-09T09:16:16.817Z,65.3237
2023-04-09T09:17:17.372Z,65.0300
2023-04-09T09:18:17.867Z,65.0092
2023-04-09T09:19:18.302Z,65.1248
2023-04-09T09:20:18.797Z,65.2388
2023-04-09T09:21:19.297Z,65.2934
2023-04-09T09:22:19.704Z,65.3085
2023-04-09T09:23:20.242Z,65.2039
2023-04-09T09:24:20.795Z,64.7168
2023-04-09T09:25:21.265Z,64.3977
2023-04-09T09:26:21.758Z,64.3159
2023-04-09T09:27:22.192Z,64.1700
2023-04-09T09:28:22.642Z,64.0113
2023-04-09T09:29:23.124Z,64.0479
2023-04-09T09:30:23.530Z,64.1193
2023-04-09T09:31:24.179Z,64.1430
2023-04-09T09:32:24.851Z,64.0596
2023-04-09T09:33:25.363Z,63.9140
2023-04-09T09:34:26.815Z,63.8371
2023-04-09T09:35:27.267Z,63.6999
2023-04-09T09:36:27.685Z,63.6457
2023-04-09T09:37:28.184Z,63.6943
2023-04-09T09:38:28.614Z,63.7863
2023-04-09T09:39:29.103Z,63.7733
2023-04-09T09:40:29.544Z,63.7634
2023-04-09T09:41:29.981Z,63.8019
2023-04-09T09:42:30.467Z,63.7906
2023-04-09T09:43:30.889Z,63.7699
2023-04-09T09:44:31.407Z,63.7442
2023-04-09T09:45:32.437Z,63.6386
2023-04-09T09:46:33.121Z,63.4352
2023-04-09T09:47:33.697Z,63.2186
2023-04-09T09:48:34.099Z,63.0458
2023-04-09T09:49:34.508Z,63.0116
2023-04-09T09:50:35.022Z,63.1292
2023-04-09T09:51:35.437Z,63.2085
2023-04-09T09:52:35.851Z,63.0744
2023-04-09T09:53:36.272Z,62.8743
2023-04-09T09:54:36.739Z,62.6290
2023-04-09T09:55:37.153Z,62.4732
2023-04-09T09:56:37.637Z,62.4259
2023-04-09T09:57:38.044Z,62.4374
2023-04-09T09:58:38.482Z,62.4922
2023-04-09T09:59:38.914Z,62.4974
2023-04-09T10:00:39.350Z,62.5481
2023-04-09T10:01:39.809Z,62.5925
2023-04-09T10:02:40.474Z,62.6233
2023-04-09T10:03:41.078Z,62.5634
2023-04-09T10:04:41.489Z,62.4170
2023-04-09T10:05:42.092Z,62.3356
2023-04-09T10:06:42.610Z,61.9420
2023-04-09T10:07:43.033Z,61.8055
2023-04-09T10:08:43.562Z,61.8027
2023-04-09T10:09:44.146Z,61.8440
2023-04-09T10:10:44.647Z,61.9723
2023-04-09T10:11:45.083Z,62.0568
2023-04-09T10:12:45.455Z,62.0994
2023-04-09T10:13:45.898Z,62.0631
2023-04-09T10:14:46.383Z,62.0154
2023-04-09T10:15:46.880Z,62.0281
2023-04-09T10:16:47.306Z,62.0539
2023-04-09T10:17:47.765Z,62.0355
2023-04-09T10:18:48.300Z,61.9843
2023-04-09T10:19:48.748Z,61.9923
2023-04-09T10:20:49.259Z,61.9782
2023-04-09T10:21:49.651Z,61.9439
2023-04-09T10:22:50.052Z,61.8095
2023-04-09T10:23:50.556Z,61.1754
2023-04-09T10:24:50.934Z,60.8935
2023-04-09T10:25:51.347Z,60.7169
2023-04-09T10:26:51.772Z,60.4127
2023-04-09T10:27:52.175Z,60.4990
2023-04-09T10:28:52.650Z,60.6801
2023-04-09T10:29:53.282Z,60.7710
2023-04-09T10:30:53.784Z,60.7267
2023-04-09T10:31:54.253Z,60.6508
2023-04-09T10:32:54.752Z,60.6570
2023-04-09T10:33:55.228Z,60.6635
2023-04-09T10:34:55.602Z,60.7053
2023-04-09T10:35:56.074Z,60.6783
2023-04-09T10:36:56.467Z,60.6100
2023-04-09T10:37:56.916Z,60.5508
2023-04-09T10:38:57.388Z,60.4520
2023-04-09T10:39:57.997Z,60.4337
2023-04-09T10:40:58.449Z,60.4541
2023-04-09T10:41:58.947Z,60.4181
2023-04-09T10:42:59.409Z,60.3393
2023-04-09T10:43:59.838Z,60.3329
2023-04-09T10:45:00.269Z,60.3741
2023-04-09T10:46:00.691Z,60.3182
2023-04-09T10:47:01.175Z,60.1258
2023-04-09T10:48:01.645Z,60.0218
2023-04-09T10:49:02.176Z,60.0056
2023-04-09T10:50:02.653Z,59.9579
2023-04-09T10:51:03.159Z,59.7110
2023-04-09T10:52:03.578Z,59.6114
2023-04-09T10:53:04.009Z,59.5617
2023-04-09T10:54:04.400Z,59.5165
2023-04-09T10:55:04.886Z,59.4133
2023-04-09T10:56:05.380Z,59.3095
2023-04-09T10:57:05.764Z,59.1740
2023-04-09T10:58:06.230Z,59.0721
2023-04-09T10:59:07.279Z,58.8493
2023-04-09T11:00:07.767Z,58.6587
2023-04-09T11:01:08.163Z,58.7055
2023-04-09T11:02:08.685Z,58.8057
2023-04-09T11:03:09.563Z,58.6677
2023-04-09T11:04:10.794Z,58.4825
2023-04-09T11:05:11.420Z,58.5009
2023-04-09T11:06:11.838Z,58.3997
2023-04-09T11:07:12.281Z,58.1043
2023-04-09T11:08:12.667Z,58.1077
2023-04-09T11:09:13.081Z,58.2049
2023-04-09T11:10:13.532Z,58.2001
2023-04-09T11:11:13.990Z,58.1899
2023-04-09T11:12:14.458Z,58.1457
2023-04-09T11:13:14.895Z,58.0987
2023-04-09T11:14:15.374Z,58.1266
2023-04-09T11:15:15.831Z,58.1310
2023-04-09T11:16:22.909Z,58.0700
2023-04-09T11:17:16.650Z,57.9738
2023-04-09T11:18:17.132Z,57.6933
2023-04-09T11:19:17.568Z,57.0531
2023-04-09T11:20:17.939Z,56.9504
2023-04-09T11:21:18.332Z,57.0397
2023-04-09T11:22:18.827Z,56.9982
2023-04-09T11:23:19.183Z,56.8524
2023-04-09T11:24:19.536Z,55.9535
2023-04-09T11:25:19.968Z,54.9631
2023-04-09T11:26:20.419Z,54.8579
2023-04-09T11:27:20.865Z,54.9367
2023-04-09T11:28:21.291Z,54.8774
2023-04-09T11:29:21.621Z,54.7165
2023-04-09T11:30:21.994Z,54.2042
2023-04-09T11:31:22.384Z,53.8945
2023-04-09T11:32:22.894Z,53.8077
2023-04-09T11:33:23.287Z,53.8075
2023-04-09T11:34:23.652Z,53.6975
2023-04-09T11:35:23.974Z,53.2595
2023-04-09T11:36:24.329Z,52.8692
2023-04-09T11:37:24.824Z,52.5250
2023-04-09T11:38:25.172Z,51.9470
2023-04-09T11:39:25.546Z,51.5384
2023-04-09T11:40:25.890Z,51.6651
2023-04-09T11:41:26.278Z,51.8489
2023-04-09T11:42:26.662Z,51.8072
2023-04-09T11:43:27.029Z,51.6193
2023-04-09T11:44:27.340Z,51.3636
2023-04-09T11:45:27.699Z,51.3737
2023-04-09T11:46:27.994Z,51.4051
2023-04-09T11:47:28.386Z,51.3239
2023-04-09T11:48:28.723Z,50.7918
2023-04-09T11:49:29.103Z,50.7765
2023-04-09T11:50:29.485Z,50.6807
2023-04-09T11:51:29.836Z,50.1873
2023-04-09T11:52:30.133Z,49.3281
2023-04-09T11:53:30.485Z,48.4702
2023-04-09T11:54:30.768Z,47.0307
2023-04-09T11:55:31.068Z,45.6946
2023-04-09T11:56:31.348Z,44.9993
2023-04-09T11:57:31.605Z,44.6926
2023-04-09T11:58:31.842Z,44.4372
2023-04-09T11:59:32.147Z,43.9588
2023-04-09T12:00:32.477Z,43.5097
2023-04-09T12:01:32.788Z,43.0851
2023-04-09T12:02:33.283Z,42.3592
2023-04-09T12:03:34.113Z,41.4685
2023-04-09T12:04:35.193Z,40.1632
2023-04-09T12:05:35.672Z,39.1896
2023-04-09T12:06:35.821Z,38.3630
2023-04-09T12:07:36.042Z,38.0135
2023-04-09T12:08:36.161Z,37.6565
2023-04-09T12:09:36.425Z,36.7376
2023-04-09T12:10:36.580Z,35.6779
2023-04-09T12:11:36.775Z,34.8663